createdAt,value
2019-02-04T00:00:11.030Z,12.90
2019-02-04T00:02:54.943Z,16.40
2019-02-04T00:05:51.624Z,20.33
2019-02-04T00:08:24.856Z,17.10
2019-02-04T00:11:16.370Z,21.67
2019-02-04T00:14:16.910Z,20.37
2019-02-04T00:16:47.511Z,22.10
2019-02-04T00:19:20.043Z,23.53
2019-02-04T00:21:57.404Z,21.97
2019-02-04T00:24:32.184Z,15.70
2019-02-04T00:27:25.904Z,21.53
2019-02-04T00:30:22.546Z,20.63
2019-02-04T00:33:33.395Z,19.60
2019-02-04T00:36:07.063Z,19.33
2019-02-04T00:38:42.272Z,24.97
2019-02-04T00:41:15.888Z,23.50
2019-02-04T00:43:54.339Z,20.23
2019-02-04T00:46:37.941Z,21.13
2019-02-04T00:49:12.792Z,30.90
2019-02-04T00:51:45.437Z,15.10
2019-02-04T00:54:35.188Z,21.37
2019-02-04T00:57:13.375Z,24.83
2019-02-04T01:00:01.991Z,24.27
2019-02-04T01:02:36.120Z,24.70
2019-02-04T01:05:15.447Z,21.17
2019-02-04T01:07:50.474Z,22.70
2019-02-04T01:10:30.630Z,24.90
2019-02-04T01:13:06.395Z,22.83
2019-02-04T01:15:46.276Z,29.87
2019-02-04T01:18:18.411Z,31.63
2019-02-04T01:20:55.617Z,25.90
2019-02-04T01:23:27.747Z,24.20
2019-02-04T01:26:09.633Z,25.93
2019-02-04T01:28:48.337Z,26.73
2019-02-04T01:31:23.351Z,33.40
2019-02-04T01:34:16.664Z,33.97
2019-02-04T01:36:56.633Z,29.43
2019-02-04T01:39:27.723Z,36.00
2019-02-04T01:42:06.525Z,33.67
2019-02-04T01:44:54.354Z,40.00
2019-02-04T01:47:41.699Z,35.57
2019-02-04T01:50:20.136Z,43.63
2019-02-04T01:52:56.484Z,28.37
2019-02-04T01:55:31.078Z,33.33
2019-02-04T01:58:04.334Z,30.10
2019-02-04T02:00:52.386Z,21.23
2019-02-04T02:03:26.193Z,27.33
2019-02-04T02:05:58.157Z,29.43
2019-02-04T02:08:32.016Z,30.80
2019-02-04T02:11:06.246Z,27.33
2019-02-04T02:13:48.717Z,27.20
2019-02-04T02:16:31.412Z,26.77
2019-02-04T02:19:03.272Z,22.43
2019-02-04T02:21:44.949Z,26.40
2019-02-04T02:24:18.708Z,26.90
2019-02-04T02:26:58.213Z,30.30
2019-02-04T02:29:38.951Z,23.83
2019-02-04T02:32:17.463Z,26.97
2019-02-04T02:34:50.904Z,27.53
2019-02-04T02:37:23.539Z,28.30
2019-02-04T02:40:01.291Z,24.30
2019-02-04T02:42:42.209Z,34.73
2019-02-04T02:45:41.618Z,30.23
2019-02-04T02:48:17.528Z,24.07
2019-02-04T02:50:53.398Z,24.07
2019-02-04T02:53:28.378Z,38.17
2019-02-04T02:56:10.746Z,38.20
2019-02-04T02:58:49.747Z,31.90
2019-02-04T03:01:33.704Z,33.02
2019-02-04T03:04:22.542Z,31.30
2019-02-04T03:06:57.848Z,40.10
2019-02-04T03:09:32.330Z,29.90
2019-02-04T03:12:07.453Z,33.60
2019-02-04T03:14:42.421Z,30.97
2019-02-04T03:17:18.971Z,30.60
2019-02-04T03:19:51.502Z,29.97
2019-02-04T03:22:31.352Z,29.67
2019-02-04T03:25:08.301Z,35.73
2019-02-04T03:27:42.741Z,31.10
2019-02-04T03:30:20.814Z,31.80
2019-02-04T03:33:13.010Z,28.73
2019-02-04T03:35:48.412Z,33.17
2019-02-04T03:38:25.966Z,33.03
2019-02-04T03:40:57.460Z,27.67
2019-02-04T03:43:32.391Z,35.77
2019-02-04T03:46:09.432Z,28.80
2019-02-04T03:48:53.920Z,37.27
2019-02-04T03:51:27.544Z,26.50
2019-02-04T03:54:05.651Z,36.80
2019-02-04T03:56:44.529Z,35.00
2019-02-04T03:59:20.518Z,33.23
2019-02-04T04:01:58.362Z,40.13
2019-02-04T04:04:29.744Z,24.20
2019-02-04T04:07:04.320Z,32.50
2019-02-04T04:09:39.944Z,32.30
2019-02-04T04:12:12.035Z,34.07
2019-02-04T04:14:54.478Z,37.70
2019-02-04T04:17:46.832Z,34.47
2019-02-04T04:20:20.382Z,43.57
2019-02-04T04:22:53.304Z,39.70
2019-02-04T04:25:33.044Z,40.20
2019-02-04T04:28:09.148Z,35.00
2019-02-04T04:30:48.553Z,33.07
2019-02-04T04:33:26.865Z,30.03
2019-02-04T04:36:08.758Z,34.03
2019-02-04T04:38:47.327Z,32.58
2019-02-04T04:41:38.668Z,34.47
2019-02-04T04:44:30.215Z,34.90
2019-02-04T04:47:13.398Z,31.70
2019-02-04T04:49:49.393Z,31.70
2019-02-04T04:52:24.427Z,35.47
2019-02-04T04:54:59.450Z,29.60
2019-02-04T04:57:39.002Z,28.60
2019-02-04T05:00:18.011Z,40.30
2019-02-04T05:02:54.341Z,36.50
2019-02-04T05:09:26.145Z,26.20
2019-02-04T05:12:01.310Z,27.80
2019-02-04T05:14:38.485Z,41.23
2019-02-04T05:17:17.985Z,27.87
2019-02-04T05:20:28.050Z,27.00
2019-02-04T05:22:59.587Z,28.38
2019-02-04T05:25:36.851Z,26.37
2019-02-04T05:28:22.180Z,32.20
2019-02-04T05:30:57.598Z,30.23
2019-02-04T05:33:32.421Z,29.33
2019-02-04T05:36:11.724Z,28.60
2019-02-04T05:38:47.926Z,27.97
2019-02-04T05:41:28.375Z,33.90
2019-02-04T05:44:09.972Z,27.77
2019-02-04T05:46:52.186Z,26.63
2019-02-04T05:49:19.425Z,32.40
2019-02-04T05:52:02.402Z,33.17
2019-02-04T05:54:38.816Z,33.63
2019-02-04T05:57:22.565Z,32.17
2019-02-04T06:00:08.366Z,30.73
2019-02-04T06:02:43.695Z,38.37
2019-02-04T06:05:16.945Z,36.83
2019-02-04T06:07:48.773Z,31.60
2019-02-04T06:10:34.769Z,32.20
2019-02-04T06:13:13.361Z,35.60
2019-02-04T06:16:01.396Z,24.27
2019-02-04T06:18:41.697Z,33.07
2019-02-04T06:21:29.848Z,28.73
2019-02-04T06:24:05.108Z,29.80
2019-02-04T06:26:53.372Z,33.80
2019-02-04T06:29:36.518Z,27.93
2019-02-04T06:32:17.688Z,27.67
2019-02-04T06:34:58.426Z,24.90
2019-02-04T06:41:05.397Z,30.13
2019-02-04T06:47:01.462Z,24.93
2019-02-04T06:50:24.257Z,30.30
2019-02-04T06:53:49.631Z,24.60
2019-02-04T06:56:58.001Z,26.70
2019-02-04T07:00:11.039Z,26.07
2019-02-04T07:03:04.861Z,24.13
2019-02-04T07:05:54.578Z,24.43
2019-02-04T07:09:10.293Z,27.93
2019-02-04T07:12:07.293Z,30.83
2019-02-04T07:14:56.129Z,26.17
2019-02-04T07:17:49.219Z,23.87
2019-02-04T07:20:52.998Z,26.55
2019-02-04T07:23:50.104Z,27.43
2019-02-04T07:26:56.232Z,29.17
2019-02-04T07:29:33.790Z,23.37
2019-02-04T07:32:29.668Z,21.77
2019-02-04T07:35:15.481Z,27.13
2019-02-04T07:38:22.559Z,23.90
2019-02-04T07:41:34.622Z,20.13
2019-02-04T07:44:33.861Z,26.30
2019-02-04T07:47:37.749Z,23.03
2019-02-04T07:50:39.552Z,24.93
2019-02-04T07:54:13.470Z,23.87
2019-02-04T07:57:13.941Z,22.33
2019-02-04T07:59:59.356Z,23.70
2019-02-04T08:02:59.721Z,19.63
2019-02-04T08:22:55.361Z,19.90
2019-02-04T08:29:49.613Z,20.10
2019-02-04T08:33:17.202Z,23.67
2019-02-04T08:41:03.470Z,27.60
2019-02-04T08:44:27.958Z,17.50
2019-02-04T08:51:41.812Z,18.45
2019-02-04T08:55:18.830Z,21.20
2019-02-04T08:58:54.359Z,19.60
2019-02-04T09:17:56.649Z,17.97
2019-02-04T09:21:03.831Z,19.23
2019-02-04T09:31:21.078Z,21.90
2019-02-04T09:34:47.602Z,18.60
2019-02-04T09:42:10.967Z,16.83
2019-02-04T09:49:34.039Z,19.07
2019-02-04T09:56:38.590Z,18.30
2019-02-04T10:00:32.408Z,16.00
2019-02-04T10:04:00.924Z,17.67
2019-02-04T10:06:55.326Z,18.33
2019-02-04T10:10:23.573Z,17.73
2019-02-04T10:13:32.175Z,16.67
2019-02-04T10:16:33.307Z,19.23
2019-02-04T10:23:51.776Z,24.90
2019-02-04T10:27:29.945Z,17.97
2019-02-04T11:01:10.287Z,18.73
2019-02-04T11:08:55.797Z,16.20
2019-02-04T11:16:37.405Z,27.53
2019-02-04T11:27:00.314Z,15.67
2019-02-04T11:35:10.563Z,18.60
2019-02-04T11:54:28.029Z,18.23
2019-02-04T11:57:03.759Z,17.00
2019-02-04T12:00:41.711Z,11.30
2019-02-04T12:04:19.698Z,20.25
2019-02-04T12:15:42.090Z,12.43
2019-02-04T12:31:08.949Z,13.50
2019-02-04T12:34:33.850Z,14.50
2019-02-04T12:44:54.700Z,21.73
2019-02-04T12:55:49.924Z,12.20
2019-02-04T12:58:55.972Z,9.27
2019-02-04T13:06:27.317Z,13.73
2019-02-04T13:09:43.318Z,9.80
2019-02-04T13:16:53.094Z,8.20
2019-02-04T13:27:30.333Z,7.80
2019-02-04T13:30:18.229Z,11.38
2019-02-04T13:36:33.598Z,7.57
2019-02-04T13:40:40.676Z,9.50
2019-02-04T13:47:33.198Z,5.40
2019-02-04T13:50:34.714Z,8.07
2019-02-04T13:56:36.729Z,9.30
2019-02-04T13:59:43.781Z,10.03
2019-02-04T14:02:58.843Z,12.18
2019-02-04T14:08:41.867Z,9.63
2019-02-04T14:11:58.384Z,11.53
2019-02-04T14:21:28.281Z,7.93
2019-02-04T14:24:26.316Z,10.90
2019-02-04T14:34:32.906Z,10.20
2019-02-04T14:37:34.294Z,15.57
2019-02-04T14:40:38.232Z,12.83
2019-02-04T14:47:39.490Z,15.30
2019-02-04T14:51:22.643Z,10.53
2019-02-04T14:55:06.207Z,7.17
2019-02-04T14:59:01.440Z,8.43
2019-02-04T15:11:04.972Z,9.00
2019-02-04T15:21:52.939Z,10.37
2019-02-04T15:51:08.915Z,12.47
2019-02-04T15:54:39.260Z,8.63
2019-02-04T16:02:06.256Z,9.07
2019-02-04T17:37:48.921Z,5.30
2019-02-04T17:40:41.661Z,6.37
2019-02-04T17:44:11.649Z,7.33
2019-02-04T17:47:30.121Z,6.00
2019-02-04T17:50:30.740Z,6.08
2019-02-04T17:53:41.094Z,7.37
2019-02-04T17:56:40.278Z,9.33
2019-02-04T17:59:47.185Z,10.10
2019-02-04T18:02:42.094Z,10.10
2019-02-04T18:09:30.941Z,12.57
2019-02-04T18:13:15.348Z,8.30
2019-02-04T18:24:13.524Z,5.07
2019-02-04T18:30:39.905Z,6.33
2019-02-04T18:34:09.942Z,5.93
2019-02-04T18:37:34.309Z,4.97
2019-02-04T18:40:34.389Z,5.93
2019-02-04T18:44:00.578Z,9.90
2019-02-04T18:47:39.202Z,11.27
2019-02-04T18:54:14.308Z,6.70
2019-02-04T18:57:10.688Z,11.57
2019-02-04T19:00:23.409Z,10.03
2019-02-04T19:03:45.058Z,7.00
2019-02-04T19:10:47.766Z,11.77
2019-02-04T19:14:30.493Z,7.00
2019-02-04T19:18:02.093Z,6.93
2019-02-04T19:24:20.632Z,9.93
2019-02-04T19:27:08.673Z,9.43
2019-02-04T19:30:11.355Z,13.43
2019-02-04T19:32:55.396Z,12.90
2019-02-04T19:36:30.058Z,7.20
2019-02-04T19:39:49.062Z,6.73
2019-02-04T19:43:03.098Z,10.27
2019-02-04T19:46:08.373Z,8.53
2019-02-04T19:48:48.432Z,13.40
2019-02-04T19:55:11.054Z,9.53
2019-02-04T19:58:34.397Z,8.27
2019-02-04T20:02:13.642Z,8.80
2019-02-04T20:12:47.650Z,13.10
2019-02-04T20:19:18.716Z,7.10
2019-02-04T20:22:22.989Z,11.33
2019-02-04T20:25:33.486Z,6.67
2019-02-04T20:31:43.834Z,4.00
2019-02-04T20:34:48.560Z,6.97
2019-02-04T20:37:41.819Z,4.43
2019-02-04T20:41:43.947Z,6.53
2019-02-04T20:44:53.886Z,8.73
2019-02-04T20:48:11.664Z,6.17
2019-02-04T20:51:21.992Z,8.53
2019-02-04T20:54:22.962Z,15.73
2019-02-04T20:57:57.316Z,44.53
2019-02-04T21:49:33.145Z,5.60
2019-02-04T21:52:41.651Z,7.23
2019-02-04T21:55:41.491Z,9.77
2019-02-04T21:58:39.315Z,11.37
2019-02-04T22:01:25.428Z,10.80
2019-02-04T22:04:13.457Z,12.83
2019-02-04T22:06:56.597Z,11.33
2019-02-04T22:09:43.560Z,10.27
2019-02-04T22:12:31.665Z,5.00
2019-02-04T22:15:46.499Z,8.60
2019-02-04T22:17:50.259Z,6.90
2019-02-04T22:20:26.443Z,8.07
2019-02-04T22:23:06.053Z,9.10
2019-02-04T22:25:42.670Z,5.40
2019-02-04T22:28:30.520Z,4.90
2019-02-04T22:31:27.249Z,5.70
2019-02-04T22:34:05.304Z,6.40
2019-02-04T22:36:51.542Z,6.10
2019-02-04T22:39:35.675Z,7.30
2019-02-04T22:42:19.246Z,8.63
2019-02-04T22:45:16.952Z,7.40
2019-02-04T22:48:11.939Z,13.10
2019-02-04T22:50:49.381Z,8.17
2019-02-04T22:53:33.512Z,13.00
2019-02-04T22:56:34.871Z,6.90
2019-02-04T22:59:51.275Z,7.10
2019-02-04T23:02:54.089Z,7.80
2019-02-04T23:05:46.922Z,8.10
2019-02-04T23:08:19.651Z,7.50
2019-02-04T23:10:58.040Z,8.60
2019-02-04T23:13:33.262Z,7.67
2019-02-04T23:16:09.588Z,8.40
2019-02-04T23:19:15.397Z,12.40
2019-02-04T23:21:51.792Z,6.50
2019-02-04T23:24:40.012Z,10.90
2019-02-04T23:27:23.521Z,7.03
2019-02-04T23:30:19.619Z,7.30
2019-02-04T23:33:01.763Z,13.57
2019-02-04T23:35:38.189Z,10.07
2019-02-04T23:38:13.173Z,14.47
2019-02-04T23:40:44.558Z,13.37
2019-02-04T23:43:28.265Z,10.10
2019-02-04T23:46:13.467Z,8.40
2019-02-04T23:48:47.028Z,12.70
2019-02-04T23:51:20.588Z,12.93
2019-02-04T23:54:02.522Z,15.48
2019-02-04T23:56:40.020Z,17.90
2019-02-04T23:59:43.093Z,16.00
